Dades meteomassalio
Diari Summary for Agost 28, 2017 Units:  Metric    English   Both
« Previous Day
Next Day »
Diari Semanal Mensual Anual Personalitzat
  Maxima: Minima: Mijana:
Temperatura: -17.8 °C -6 °C -3.2 °C
Rosada: -17.8 °C -9.3 °C -7.4 °C
Humitat: Humidity % 35 % 63 %
Velocitat del vent: 0 km/h 0 km/h 16.6 km/h
Racha vent: 0 km/h - -
Vent:- - SSW
Pressio: 0 hPa 34303.6 hPa -
Pluja: 0 mm    
Historical Graphs
 
 
Tabular Data for Agost 28, 2017
Time Temperature Dew Point Pressure Wind Wind Speed Wind Gust Humidity Rainfall Rate (Hourly) solar Conditions
-17.8 °C -17.8 °C 0 hPa Calm     Humidity % 0 mm SolarRadiationWatts/m^2 W/m2 Conditions
16:52 0.4 °C -9.3 °C 34371.3 hPa ESE 10.3 km/h 10.3 km/h 35 % 0 mm 842.0 W/m2 OVC
16:53 0.4 °C -9.3 °C 34371.3 hPa East 18.2 km/h 18.2 km/h 35 % 0 mm 842.0 W/m2 OVC
16:58 0.5 °C -9.2 °C 34361.1 hPa SE 20.9 km/h 20.9 km/h 35 % 0 mm 842.0 W/m2 CLR
17:03 0.4 °C -9.3 °C 34347.6 hPa ESE 26.9 km/h 26.9 km/h 35 % 0 mm 218.0 W/m2 CLR
17:08 0.3 °C -9.1 °C 34347.6 hPa SSE 26.9 km/h 26.9 km/h 36 % 0 mm 241.0 W/m2 CLR
17:13 0.2 °C -9 °C 34337.4 hPa ENE 15 km/h 15 km/h 37 % 0 mm 232.0 W/m2 CLR
17:18 0.2 °C -8.8 °C 34327.3 hPa ESE 11.9 km/h   38 % 0 mm 218.0 W/m2 CLR
17:23 0.1 °C -8.7 °C 34327.3 hPa ESE 23.8 km/h 23.8 km/h 39 % 0 mm 178.0 W/m2 CLR
17:28 -0.1 °C -8.6 °C 34327.3 hPa ENE 26.9 km/h 26.9 km/h 40 % 0 mm 155.0 W/m2 CLR
17:33 -0.2 °C -8.7 °C 34327.3 hPa East 15 km/h 15 km/h 40 % 0 mm 128.0 W/m2 CLR
17:38 -0.2 °C -8.7 °C 34313.7 hPa ESE 23.8 km/h 23.8 km/h 40 % 0 mm 130.0 W/m2 CLR
17:43 -0.2 °C -8.7 °C 34313.7 hPa ESE 10.3 km/h 10.3 km/h 40 % 0 mm 128.0 W/m2 CLR
17:48 -0.3 °C -8.7 °C 34313.7 hPa ESE 17.9 km/h 17.9 km/h 40 % 0 mm 132.0 W/m2 CLR
17:53 -0.3 °C -8.5 °C 34303.6 hPa ESE 10.3 km/h 10.3 km/h 41 % 0 mm 135.0 W/m2 CLR
17:58 -0.3 °C -8.5 °C 34303.6 hPa SE 9 km/h 9 km/h 41 % 0 mm 142.0 W/m2 CLR
18:03 -0.3 °C -6.9 °C 34303.6 hPa WSW 28.5 km/h 28.5 km/h 49 % 0 mm 146.0 W/m2 CLR
18:08 -0.7 °C -6.4 °C 34303.6 hPa WSW 9 km/h   54 % 0 mm 132.0 W/m2 CLR
18:13 -0.9 °C -6.5 °C 34303.6 hPa WNW 20.8 km/h 20.8 km/h 55 % 0 mm 134.0 W/m2 CLR
18:18 -1.2 °C -6.6 °C 34303.6 hPa West 28.5 km/h 28.5 km/h 56 % 0 mm 134.0 W/m2 CLR
18:23 -1.6 °C -6.8 °C 34303.6 hPa West 17.9 km/h 17.9 km/h 57 % 0 mm 137.0 W/m2 CLR
18:28 -2.3 °C -7.3 °C 34303.6 hPa WSW 23.3 km/h 23.3 km/h 58 % 0 mm 144.0 W/m2 CLR
18:33 -2 °C -7 °C 34303.6 hPa West 29.8 km/h 29.8 km/h 58 % 0 mm 158.0 W/m2 CLR
18:38 -2.1 °C -7.1 °C 34303.6 hPa WSW 9 km/h 13.7 km/h 58 % 0 mm 160.0 W/m2 CLR
18:44 -2.2 °C -7.4 °C 34303.6 hPa Calm     57 % 0 mm 109.0 W/m2 OVC
18:49 -2.3 °C -7.4 °C 34303.6 hPa Calm     57 % 0 mm 97.0 W/m2 CLR
18:54 -2.4 °C -7.4 °C 34303.6 hPa Calm     58 % 0 mm 93.0 W/m2 CLR
18:59 -2.4 °C -7.3 °C 34303.6 hPa NW 12.9 km/h 12.9 km/h 59 % 0 mm 95.0 W/m2 CLR
19:04 -2.6 °C -7.1 °C 34303.6 hPa WNW 6 km/h   61 % 0 mm 93.0 W/m2 CLR
19:09 -2.6 °C -7.2 °C 34303.6 hPa WNW 11.9 km/h 11.9 km/h 61 % 0 mm 81.0 W/m2 CLR
19:14 -2.7 °C -7.1 °C 34303.6 hPa Calm     62 % 0 mm 63.0 W/m2 FEW
19:19 -2.8 °C -7.2 °C 34303.6 hPa West 9 km/h   62 % 0 mm 42.0 W/m2 FEW
19:24 -2.9 °C -7.1 °C 34303.6 hPa WNW 10.3 km/h 10.3 km/h 63 % 0 mm 33.0 W/m2 SCT
19:30 -2.9 °C -7.1 °C 34303.6 hPa Calm     64 % 0 mm 35.0 W/m2 BKN
19:35 -3 °C -7.1 °C 34303.6 hPa Calm     64 % 0 mm 37.0 W/m2 BKN
19:40 -3 °C -7 °C 34303.6 hPa Calm     65 % 0 mm 33.0 W/m2 BKN
19:45 -3.1 °C -7.1 °C 34303.6 hPa Calm     65 % 0 mm 25.0 W/m2 BKN
19:50 -3.1 °C -7.1 °C 34303.6 hPa Calm     65 % 0 mm 18.0 W/m2 BKN
19:55 -3.1 °C -7.1 °C 34303.6 hPa Calm     65 % 0 mm 14.0 W/m2 BKN
20:00 -3.2 °C -7.1 °C 34303.6 hPa Calm     65 % 0 mm 12.0 W/m2 BKN
20:05 -3.2 °C -7 °C 34303.6 hPa Calm     66 % 0 mm 12.0 W/m2 BKN
20:10 -3.2 °C -7.1 °C 34303.6 hPa Calm     66 % 0 mm 11.0 W/m2 BKN
20:15 -3.3 °C -7 °C 34303.6 hPa Calm     67 % 0 mm 7.0 W/m2 BKN
20:20 -3.3 °C -7 °C 34303.6 hPa Calm     67 % 0 mm 0.0 W/m2 OVC
20:25 -3.4 °C -6.9 °C 34303.6 hPa Calm     68 % 0 mm 0.0 W/m2 OVC
20:30 -3.4 °C -6.8 °C 34303.6 hPa Calm     69 % 0 mm 0.0 W/m2 OVC
20:35 -3.4 °C -6.8 °C 34303.6 hPa Calm     69 % 0 mm 0.0 W/m2 OVC
20:40 -3.4 °C -6.7 °C 34303.6 hPa Calm     70 % 0 mm 0.0 W/m2 OVC
20:45 -3.5 °C -6.6 °C 34303.6 hPa Calm     72 % 0 mm 0.0 W/m2 OVC
20:50 -3.6 °C -6.6 °C 34303.6 hPa Calm     72 % 0 mm 0.0 W/m2 CLR
20:55 -3.7 °C -6.7 °C 34303.6 hPa Calm     72 % 0 mm 0.0 W/m2 CLR
21:00 -3.7 °C -6.6 °C 34303.6 hPa Calm     73 % 0 mm 0.0 W/m2 CLR
21:05 -3.7 °C -6.5 °C 34303.6 hPa Calm     74 % 0 mm 0.0 W/m2 CLR
21:10 -3.8 °C -6.4 °C 34313.7 hPa Calm     75 % 0 mm 0.0 W/m2 CLR
21:15 -3.9 °C -6.2 °C 34313.7 hPa Calm     78 % 0 mm 0.0 W/m2 CLR
21:20 -4 °C -6.3 °C 34327.3 hPa Calm     78 % 0 mm 0.0 W/m2 CLR
21:30 -4.1 °C -6.4 °C 34337.4 hPa Calm     78 % 0 mm 0.0 W/m2 CLR
21:35 -4.1 °C -6.3 °C 34337.4 hPa Calm     79 % 0 mm 0.0 W/m2 CLR
21:40 -4.2 °C -6.3 °C 34347.6 hPa Calm     79 % 0 mm 0.0 W/m2 CLR
21:45 -4.2 °C -6.3 °C 34347.6 hPa Calm     79 % 0 mm 0.0 W/m2 CLR
21:50 -4.2 °C -6.7 °C 34347.6 hPa SW 3.1 km/h 3.1 km/h 76 % 0 mm 0.0 W/m2 CLR
21:55 -4.2 °C -6.8 °C 34361.1 hPa SW 9 km/h 9 km/h 75 % 0 mm 0.0 W/m2 CLR
22:14 -4.1 °C -6.9 °C 34371.3 hPa SW 23.8 km/h 23.8 km/h 74 % 0 mm 0.0 W/m2 CLR
22:19 -4.2 °C -7.1 °C 34371.3 hPa SSW 23.8 km/h 23.8 km/h 73 % 0 mm 0.0 W/m2 CLR
22:24 -4.2 °C -7.2 °C 34384.8 hPa WSW 28.5 km/h 28.5 km/h 72 % 0 mm 0.0 W/m2 CLR
22:29 -4.3 °C -7.4 °C 34395 hPa West 49.2 km/h 49.2 km/h 71 % 0 mm 0.0 W/m2 CLR
22:34 -4.3 °C -7.4 °C 34395 hPa WSW 51.8 km/h 51.8 km/h 71 % 0 mm 0.0 W/m2 CLR
22:39 -4.5 °C -7.3 °C 34405.1 hPa WSW 41.7 km/h 41.7 km/h 73 % 0 mm 0.0 W/m2 CLR
22:45 -4.6 °C -7.4 °C 34405.1 hPa WSW 50.7 km/h 50.7 km/h 73 % 0 mm 0.0 W/m2 CLR
22:50 -4.7 °C -7.4 °C 34405.1 hPa SW 44.7 km/h 44.7 km/h 74 % 0 mm 0.0 W/m2 CLR
22:55 -4.8 °C -7.4 °C 34405.1 hPa WSW 53.6 km/h 53.6 km/h 75 % 0 mm 0.0 W/m2 CLR
23:00 -4.9 °C -7.3 °C 34405.1 hPa SW 53.6 km/h 53.6 km/h 77 % 0 mm 0.0 W/m2 CLR
23:05 -5.1 °C -7.4 °C 34405.1 hPa SW 56.6 km/h 56.6 km/h 78 % 0 mm 0.0 W/m2 CLR
23:10 -5.3 °C -7.4 °C 34418.7 hPa SW 38.8 km/h 38.8 km/h 79 % 0 mm 0.0 W/m2 CLR
23:15 -5.4 °C -7.3 °C 34418.7 hPa SW 32.8 km/h 32.8 km/h 81 % 0 mm 0.0 W/m2 CLR
23:20 -5.5 °C -7.3 °C 34418.7 hPa WSW 23.8 km/h 23.8 km/h 82 % 0 mm 0.0 W/m2 CLR
23:25 -5.7 °C -7.3 °C 34428.8 hPa WSW 38.8 km/h 38.8 km/h 83 % 0 mm 0.0 W/m2 CLR
23:30 -5.8 °C -7.2 °C 34428.8 hPa SW 44.1 km/h 44.1 km/h 85 % 0 mm 0.0 W/m2 CLR
23:35 -5.8 °C -7.3 °C 34442.4 hPa SW 36.2 km/h 36.2 km/h 85 % 0 mm 0.0 W/m2 CLR
23:40 -5.9 °C -7.3 °C 34442.4 hPa SW 50.7 km/h 50.7 km/h 85 % 0 mm 0.0 W/m2 CLR
23:45 -5.9 °C -7.4 °C 34442.4 hPa WSW 46.7 km/h 46.7 km/h 85 % 0 mm 0.0 W/m2 CLR
23:50 -6 °C -7.4 °C 34442.4 hPa SW 44.7 km/h 44.7 km/h 85 % 0 mm 0.0 W/m2 CLR
23:55 -6 °C -7.4 °C 34442.4 hPa WSW 38.8 km/h 38.8 km/h 85 % 0 mm 0.0 W/m2 CLR
Lo Temps de Massalio
Compliments of Weather Underground - 512 kb